Time;durP1;ratioP1;P1;durP2;ratioP2;P2;SDS_P1;SDS_P2;PMS_P1;PMS_P2;Temp;Humidity;BMP_temperature;BMP_pressure;BME280_temperature;BME280_humidity;BME280_pressure;Samples;Min_cycle;Max_cycle;Signal;HPM_P1;HPM_P2
2023/07/05 00:00:51;;;;;;;7.15;6.38;;;17.30;99.90;;;-141.84;53.38;21072.06;4885030;29;20290;-78
2023/07/05 00:03:19;;;;;;;9.60;6.40;;;17.30;99.90;;;-141.84;53.65;21031.41;4889929;29;20226;-75
2023/07/05 00:05:48;;;;;;;7.20;6.13;;;17.30;99.90;;;-141.84;53.51;21049.72;4906588;29;20265;-76
2023/07/05 00:08:16;;;;;;;9.13;6.68;;;17.20;99.90;;;-141.84;53.34;21065.97;4900754;29;20230;-68
2023/07/05 00:10:45;;;;;;;8.20;6.30;;;17.20;99.90;;;-141.84;53.08;21063.94;4905769;29;20234;-72
2023/07/05 00:13:13;;;;;;;6.45;5.78;;;17.20;99.90;;;-141.84;53.43;21031.41;4905680;29;20230;-70
2023/07/05 00:15:48;;;;;;;9.40;6.78;;;17.20;99.90;;;-141.84;53.02;21070.03;4905354;29;20264;-70
2023/07/05 00:18:16;;;;;;;7.63;6.32;;;17.20;99.90;;;-141.84;53.14;21094.44;4896147;29;20237;-70
2023/07/05 00:20:45;;;;;;;9.05;6.43;;;17.20;99.90;;;-141.84;53.18;21049.72;4906168;29;20698;-71
2023/07/05 00:23:13;;;;;;;9.43;6.72;;;17.20;99.90;;;-141.84;53.36;21051.75;4906297;29;20725;-70
2023/07/05 00:25:41;;;;;;;7.43;6.45;;;17.20;99.90;;;-141.84;53.27;21090.38;4905963;29;20292;-70
2023/07/05 00:28:09;;;;;;;11.88;6.68;;;17.20;99.90;;;-141.84;53.11;21027.34;4906102;29;20238;-71
2023/07/05 00:30:38;;;;;;;7.82;6.63;;;17.20;99.90;;;-141.84;52.92;21033.44;4897883;28;20333;-69
2023/07/05 00:33:07;;;;;;;7.93;6.32;;;17.20;99.90;;;-141.84;53.21;21043.59;4906003;29;20244;-72
2023/07/05 00:35:35;;;;;;;7.15;6.40;;;17.20;99.90;;;-141.84;53.06;21080.19;4885589;29;20310;-73
2023/07/05 00:38:04;;;;;;;7.20;6.25;;;17.20;99.90;;;-141.84;53.23;21059.88;4890330;29;20254;-73
2023/07/05 00:40:32;;;;;;;8.85;6.50;;;17.20;99.90;;;-141.84;53.38;21068.00;4883445;29;20231;-73
2023/07/05 00:43:00;;;;;;;8.07;6.25;;;17.20;99.90;;;-141.84;52.37;21065.97;4889655;29;20630;-71
2023/07/05 00:45:53;;;;;;;8.07;6.10;;;17.50;99.90;;;-141.84;52.84;21096.47;4889322;29;20250;-73
2023/07/05 00:48:33;;;;;;;9.80;6.13;;;17.30;99.90;;;-141.84;52.37;21092.41;4877609;29;20572;-72
2023/07/05 00:51:05;;;;;;;7.82;6.85;;;17.40;99.90;;;-141.84;52.90;21055.81;4879953;29;20303;-72
2023/07/05 00:53:38;;;;;;;7.60;6.30;;;17.30;99.90;;;-141.84;53.01;21088.34;4885275;29;20651;-72
2023/07/05 00:56:18;;;;;;;10.88;7.20;;;17.30;99.90;;;-141.84;52.89;21084.28;4886317;29;20312;-75
2023/07/05 00:58:47;;;;;;;10.68;6.07;;;17.30;99.90;;;-141.84;52.92;21076.13;4889446;29;20297;-73
2023/07/05 01:01:15;;;;;;;8.57;7.03;;;17.30;99.90;;;-141.84;53.26;21082.25;4889171;29;20239;-73
2023/07/05 01:03:51;;;;;;;8.05;6.00;;;17.20;99.90;;;-141.84;53.44;21094.44;4889812;29;20235;-74
2023/07/05 01:06:23;;;;;;;9.18;6.28;;;17.20;99.90;;;-141.84;53.37;21021.25;4881622;29;20262;-72
2023/07/05 01:08:52;;;;;;;8.05;6.57;;;17.10;99.90;;;-141.84;53.27;21035.47;4889569;29;20249;-73
2023/07/05 01:11:31;;;;;;;7.60;6.30;;;17.10;99.90;;;-141.84;53.88;21004.97;4909624;29;20260;-76
2023/07/05 01:14:08;;;;;;;9.50;6.90;;;17.10;99.90;;;-141.84;53.96;20988.72;4908867;28;20273;-72
2023/07/05 01:17:02;;;;;;;7.82;6.22;;;17.00;99.90;;;-141.84;53.75;21017.19;4882313;29;20842;-75
2023/07/05 01:20:09;;;;;;;7.18;5.95;;;16.90;99.90;;;-141.84;54.14;20988.72;4889051;29;20766;-73
2023/07/05 01:23:11;;;;;;;7.72;6.18;;;16.90;99.90;;;-141.84;54.12;20970.41;4880955;29;20318;-74
2023/07/05 01:26:24;;;;;;;8.85;6.63;;;16.80;99.90;;;-141.84;54.14;21025.31;4889218;29;20235;-74
2023/07/05 01:29:38;;;;;;;9.02;6.75;;;16.80;99.90;;;-141.84;53.73;20994.81;4900163;28;20399;-75
2023/07/05 01:32:17;;;;;;;8.05;6.10;;;16.80;99.90;;;-141.84;53.40;21035.47;4907402;28;20242;-73
2023/07/05 01:34:52;;;;;;;11.35;6.80;;;16.90;99.90;;;-141.84;53.27;21009.03;4893484;28;20238;-73
2023/07/05 01:37:33;;;;;;;8.20;6.53;;;17.00;99.90;;;-141.84;52.87;21057.84;4888589;29;20718;-73
2023/07/05 01:40:02;;;;;;;9.05;7.13;;;17.00;99.90;;;-141.84;52.66;21061.91;4889911;29;20813;-73
2023/07/05 01:42:33;;;;;;;11.85;6.93;;;17.10;99.90;;;-141.84;52.82;21043.59;4900338;28;20230;-75
2023/07/05 01:45:02;;;;;;;8.80;7.30;;;17.10;99.90;;;-141.84;52.44;21104.59;4907250;28;20314;-73
2023/07/05 01:47:42;;;;;;;10.07;6.95;;;17.20;99.90;;;-141.84;52.49;21100.53;4906669;28;20250;-74
2023/07/05 01:50:25;;;;;;;8.88;6.75;;;17.20;99.90;;;-141.84;53.02;21045.63;4907231;28;20528;-73
2023/07/05 01:53:04;;;;;;;9.75;7.18;;;17.10;99.90;;;-141.84;52.76;21017.19;4891660;29;20270;-73
2023/07/05 01:55:40;;;;;;;9.50;7.20;;;17.20;99.90;;;-141.84;52.96;21031.41;4896716;29;20836;-73
2023/07/05 01:58:16;;;;;;;10.52;7.50;;;17.10;99.90;;;-141.84;52.92;21037.50;4909686;28;20324;-74
2023/07/05 02:00:47;;;;;;;9.07;7.18;;;17.10;99.90;;;-141.84;52.90;21068.00;4906051;28;20234;-73
2023/07/05 02:03:23;;;;;;;9.60;7.88;;;17.20;99.90;;;-141.84;52.47;21082.25;4906931;28;20606;-73
2023/07/05 02:05:52;;;;;;;9.63;7.45;;;17.20;99.90;;;-141.84;52.53;21100.53;4891094;29;20269;-74
2023/07/05 02:08:26;;;;;;;9.63;7.13;;;17.30;99.90;;;-141.84;52.34;21053.78;4901915;29;20229;-72
2023/07/05 02:10:54;;;;;;;10.00;7.20;;;17.20;99.90;;;-141.84;52.52;21080.19;4893043;29;20655;-74
2023/07/05 02:13:23;;;;;;;8.55;7.32;;;17.30;99.90;;;-141.84;52.96;21065.97;4907952;29;20234;-74
2023/07/05 02:15:51;;;;;;;8.38;7.18;;;17.30;99.90;;;-141.84;52.82;21029.38;4892487;29;20737;-73
2023/07/05 02:18:21;;;;;;;9.57;7.85;;;17.20;99.90;;;-141.84;52.46;21126.97;4884104;29;20847;-73
2023/07/05 02:20:49;;;;;;;10.35;7.90;;;17.30;99.90;;;-141.84;52.30;21100.53;4890412;29;20301;-72
2023/07/05 02:23:19;;;;;;;8.98;7.00;;;17.30;99.90;;;-141.84;52.34;21116.78;4890234;29;20234;-62
2023/07/05 02:25:47;;;;;;;8.05;7.00;;;17.30;99.90;;;-141.84;52.52;21104.59;4889050;29;20318;-60
2023/07/05 02:28:16;;;;;;;9.43;7.25;;;17.30;99.90;;;-141.84;52.77;21082.25;4887243;29;20254;-61
2023/07/05 02:30:44;;;;;;;11.85;8.00;;;17.20;99.90;;;-141.84;52.85;21070.03;4895507;29;20321;-61
2023/07/05 02:33:12;;;;;;;11.98;8.30;;;17.30;99.90;;;-141.84;53.01;21061.91;4905015;29;20301;-62
2023/07/05 02:35:42;;;;;;;11.05;8.18;;;17.20;99.90;;;-141.84;53.19;21080.19;4889108;29;20218;-62
2023/07/05 02:38:10;;;;;;;9.40;8.38;;;17.10;99.90;;;-141.84;52.95;21080.19;4907086;29;20324;-60
2023/07/05 02:40:38;;;;;;;9.48;8.25;;;17.10;99.90;;;-141.84;53.25;21031.41;4906749;28;20331;-62
2023/07/05 02:43:06;;;;;;;11.30;8.27;;;17.20;99.90;;;-141.84;52.79;21070.03;4926888;28;20264;-61
2023/07/05 02:45:36;;;;;;;11.20;9.02;;;17.20;99.90;;;-141.84;52.64;21076.13;4926203;28;20267;-61
2023/07/05 02:48:05;;;;;;;12.65;9.05;;;17.20;99.90;;;-141.84;52.54;21090.38;4918592;28;20233;-61
2023/07/05 02:50:33;;;;;;;11.00;8.60;;;17.20;99.90;;;-141.84;52.92;21102.56;4909170;28;20216;-62
2023/07/05 02:53:03;;;;;;;9.40;8.43;;;17.30;99.90;;;-141.84;53.10;21045.63;4927026;28;20613;-60
2023/07/05 02:55:31;;;;;;;11.20;9.00;;;17.20;99.90;;;-141.84;52.94;21031.41;4926839;28;20237;-63
2023/07/05 02:57:59;;;;;;;13.23;9.38;;;17.20;99.90;;;-141.84;52.88;21047.69;4926352;28;20646;-61
2023/07/05 03:00:29;;;;;;;10.50;9.40;;;17.20;99.90;;;-141.84;53.01;21049.72;4918376;28;20232;-61
2023/07/05 03:02:57;;;;;;;11.85;9.60;;;17.10;99.90;;;-141.84;52.75;21068.00;4926480;28;20582;-61
2023/07/05 03:05:25;;;;;;;12.43;10.07;;;17.20;99.90;;;-141.84;53.28;21057.84;4908095;29;20217;-61
2023/07/05 03:07:54;;;;;;;11.48;9.68;;;17.20;99.90;;;-141.84;53.20;21047.69;4907018;28;20293;-61
2023/07/05 03:10:23;;;;;;;12.90;9.55;;;17.20;99.90;;;-141.84;53.44;21037.50;4899990;29;20246;-62
2023/07/05 03:12:51;;;;;;;13.43;10.18;;;17.20;99.90;;;-141.84;53.96;21053.78;4921923;28;20272;-62
2023/07/05 03:15:19;;;;;;;13.23;9.65;;;17.10;99.90;;;-141.84;53.58;21065.97;4914026;29;20774;-62
2023/07/05 03:17:48;;;;;;;13.52;10.07;;;17.20;99.90;;;-141.84;53.39;21076.13;4908248;29;20257;-61
2023/07/05 03:20:16;;;;;;;10.98;9.63;;;17.20;99.90;;;-141.84;53.53;21027.34;4889461;29;20612;-60
2023/07/05 03:22:44;;;;;;;11.90;9.75;;;17.20;99.90;;;-141.84;53.08;21094.44;4888154;29;20321;-62
2023/07/05 03:25:12;;;;;;;12.38;10.25;;;17.30;99.90;;;-141.84;53.33;21084.28;4888239;29;20240;-61
2023/07/05 03:27:43;;;;;;;13.25;10.30;;;17.20;99.90;;;-141.84;53.05;21124.94;4888027;29;20782;-62
2023/07/05 03:30:12;;;;;;;11.25;9.70;;;17.30;99.90;;;-141.84;53.22;21088.34;4889902;29;20215;-62
2023/07/05 03:32:43;;;;;;;13.07;10.43;;;17.30;99.90;;;-141.84;53.57;21086.31;4901467;29;20210;-62
2023/07/05 03:35:12;;;;;;;11.73;10.15;;;17.30;99.90;;;-141.84;53.58;21080.19;4889902;29;20289;-60
2023/07/05 03:37:41;;;;;;;12.63;10.68;;;17.30;99.90;;;-141.84;53.18;21102.56;4888270;29;20294;-63
2023/07/05 03:40:10;;;;;;;13.48;10.88;;;17.40;99.90;;;-141.84;52.63;21108.66;4887554;29;20677;-62
2023/07/05 03:42:38;;;;;;;12.20;10.57;;;17.40;99.90;;;-141.84;53.01;21088.34;4885847;28;20705;-62
2023/07/05 03:45:09;;;;;;;13.85;10.57;;;17.40;99.90;;;-141.84;53.01;21124.94;4906870;29;20222;-63
2023/07/05 03:47:37;;;;;;;12.73;10.18;;;17.40;99.90;;;-141.84;53.32;21102.56;4907590;29;20218;-61
2023/07/05 03:50:07;;;;;;;12.77;10.75;;;17.50;99.90;;;-141.84;53.59;21104.59;4912256;29;20229;-63
2023/07/05 03:52:35;;;;;;;12.93;10.48;;;17.50;99.90;;;-141.84;53.79;21051.75;4918694;28;20388;-61
2023/07/05 03:55:04;;;;;;;12.63;10.82;;;17.50;99.90;;;-141.84;53.57;21120.88;4925651;28;20339;-62
2023/07/05 03:57:32;;;;;;;13.73;11.00;;;17.50;99.90;;;-141.84;53.15;21159.50;4925380;28;20316;-63
2023/07/05 04:00:00;;;;;;;15.32;11.43;;;17.50;99.90;;;-141.84;52.93;21157.47;4919563;28;20713;-62
2023/07/05 04:02:29;;;;;;;13.25;11.27;;;17.60;99.90;;;-141.84;52.70;21133.06;4898170;29;20695;-62
2023/07/05 04:04:57;;;;;;;14.65;11.43;;;17.70;99.90;;;-141.84;53.01;21192.03;4905977;29;20285;-60
2023/07/05 04:07:29;;;;;;;14.13;11.38;;;17.70;99.90;;;-141.84;52.86;21181.84;4906507;29;20329;-61
2023/07/05 04:09:57;;;;;;;13.27;11.25;;;17.70;99.90;;;-141.84;52.87;21155.44;4909066;29;20249;-61
2023/07/05 04:12:25;;;;;;;13.32;11.70;;;17.80;99.90;;;-141.84;52.80;21198.13;4915361;28;20730;-61
2023/07/05 04:14:53;;;;;;;14.30;11.93;;;17.90;99.90;;;-141.84;52.16;21230.66;4923876;29;20300;-60
2023/07/05 04:17:22;;;;;;;15.52;12.02;;;18.10;99.90;;;-141.84;51.59;21307.91;4912735;29;20272;-61
2023/07/05 04:19:51;;;;;;;13.18;11.57;;;18.20;99.90;;;-141.84;51.54;21226.59;4912599;28;20397;-61
2023/07/05 04:22:20;;;;;;;16.17;11.75;;;18.30;99.90;;;-141.84;51.46;21293.69;4905538;29;20570;-62
2023/07/05 04:24:48;;;;;;;16.15;11.93;;;18.40;99.90;;;-141.84;51.28;21283.50;4912458;28;20324;-61
2023/07/05 04:27:17;;;;;;;15.25;12.68;;;18.50;99.90;;;-141.84;50.52;21375.00;4913023;29;20312;-61
2023/07/05 04:29:45;;;;;;;16.95;12.90;;;18.70;99.90;;;-141.84;50.60;21368.91;4913078;29;20234;-61
2023/07/05 04:32:13;;;;;;;16.60;12.43;;;18.80;99.90;;;-141.84;50.53;21397.38;4912449;29;20229;-61
2023/07/05 04:34:42;;;;;;;15.13;12.82;;;18.80;99.90;;;-141.84;51.04;21370.94;4908036;29;20245;-62
2023/07/05 04:37:11;;;;;;;13.60;12.20;;;18.90;99.90;;;-141.84;50.89;21377.03;4912532;29;20241;-61
2023/07/05 04:39:44;;;;;;;14.10;12.27;;;18.90;99.90;;;-141.84;50.64;21393.31;4911904;29;20309;-62
2023/07/05 04:42:14;;;;;;;15.02;12.60;;;19.00;99.90;;;-141.84;50.37;21411.59;4930419;28;20729;-61
2023/07/05 04:44:42;;;;;;;13.70;12.20;;;19.10;99.90;;;-141.84;49.92;21464.47;4931188;28;20501;-61
2023/07/05 04:47:10;;;;;;;19.27;13.43;;;19.20;99.90;;;-141.84;49.16;21523.44;4931127;28;20328;-62
2023/07/05 04:49:38;;;;;;;14.63;12.48;;;19.40;99.90;;;-141.84;48.35;21612.88;4931646;28;20268;-62
2023/07/05 04:52:08;;;;;;;15.07;13.43;;;19.70;99.90;;;-141.84;47.03;21661.69;4931793;28;20268;-62
2023/07/05 04:54:38;;;;;;;16.65;13.13;;;20.00;99.90;;;-141.84;46.98;21736.94;4924761;28;20323;-61
2023/07/05 04:57:06;;;;;;;17.25;14.02;;;20.30;99.90;;;-141.84;45.77;21814.19;4918167;29;20760;-61
2023/07/05 04:59:46;;;;;;;14.98;13.07;;;20.50;99.90;;;-141.84;46.17;21761.31;4912735;29;20305;-61
2023/07/05 05:02:16;;;;;;;14.65;12.48;;;20.70;99.90;;;-141.84;46.42;21779.63;4911916;28;20603;-62
2023/07/05 05:04:44;;;;;;;15.80;13.07;;;20.70;99.90;;;-141.84;46.50;21757.25;4911776;29;20233;-61
2023/07/05 05:07:13;;;;;;;16.95;14.25;;;20.70;99.90;;;-141.84;46.40;21799.97;4913233;29;20229;-74
2023/07/05 05:09:43;;;;;;;16.40;14.02;;;20.70;99.90;;;-141.84;46.00;21877.22;4913311;28;20325;-73
2023/07/05 05:12:11;;;;;;;18.58;13.55;;;20.90;99.90;;;-141.84;45.88;21797.94;4922792;28;20240;-74
2023/07/05 05:14:39;;;;;;;15.30;12.55;;;20.90;99.90;;;-141.84;46.45;21802.00;4919405;28;20658;-72
2023/07/05 05:17:08;;;;;;;17.30;13.88;;;20.80;99.90;;;-141.84;46.05;21795.88;4913211;29;20306;-75
2023/07/05 05:19:36;;;;;;;16.25;12.65;;;20.80;99.90;;;-141.84;45.93;21804.03;4915347;29;20230;-75
2023/07/05 05:22:04;;;;;;;16.52;13.02;;;20.80;99.90;;;-141.84;45.21;21897.56;4912846;29;20301;-75
2023/07/05 05:24:32;;;;;;;15.40;13.05;;;20.90;99.90;;;-141.84;44.96;21940.25;4903752;29;20324;-75
2023/07/05 05:27:02;;;;;;;16.52;13.07;;;21.10;99.90;;;-141.84;44.40;21974.84;4910344;29;20238;-77
2023/07/05 05:29:30;;;;;;;17.60;14.05;;;21.30;99.90;;;-141.84;43.70;22037.88;4910954;29;20412;-77
2023/07/05 05:31:59;;;;;;;17.58;13.35;;;21.40;99.90;;;-141.84;44.21;21976.88;4910236;29;20234;-75
2023/07/05 05:34:28;;;;;;;18.10;14.18;;;21.50;99.90;;;-141.84;45.05;21911.78;4903038;28;20272;-71
2023/07/05 05:36:56;;;;;;;17.65;14.75;;;21.30;99.90;;;-141.84;44.83;21974.84;4909538;28;20325;-74
2023/07/05 05:39:25;;;;;;;15.48;13.30;;;21.40;99.90;;;-141.84;45.52;21948.41;4909976;29;20222;-74
2023/07/05 05:41:53;;;;;;;15.43;13.43;;;21.20;99.90;;;-141.84;46.01;21860.97;4910678;29;20278;-75
2023/07/05 05:44:22;;;;;;;15.40;13.40;;;21.10;99.90;;;-141.84;46.33;21875.19;4903350;28;20292;-75
2023/07/05 05:46:50;;;;;;;15.60;12.88;;;21.00;99.90;;;-141.84;46.31;21834.53;4909672;29;20285;-73
2023/07/05 05:49:19;;;;;;;18.63;12.50;;;20.90;99.90;;;-141.84;46.24;21824.34;4909287;29;20237;-73
2023/07/05 05:51:47;;;;;;;15.27;11.40;;;20.90;99.90;;;-141.84;45.67;21865.03;4927496;28;20233;-75
2023/07/05 05:54:15;;;;;;;16.67;12.43;;;21.00;99.90;;;-141.84;45.83;21826.41;4908326;29;20313;-74
2023/07/05 05:56:43;;;;;;;13.88;11.40;;;21.00;99.90;;;-141.84;45.74;21860.97;4908023;29;20328;-73
2023/07/05 05:59:11;;;;;;;16.10;11.60;;;20.90;99.90;;;-141.84;45.91;21834.53;4908335;29;20230;-73
2023/07/05 06:01:43;;;;;;;13.05;11.20;;;20.90;99.90;;;-141.84;45.67;21873.16;4909128;29;20268;-62
2023/07/05 06:04:14;;;;;;;14.13;11.05;;;20.80;99.90;;;-141.84;46.37;21795.88;4907855;29;20259;-63
2023/07/05 06:06:42;;;;;;;14.45;11.32;;;20.80;99.90;;;-141.84;46.44;21765.38;4908047;28;20325;-61
2023/07/05 06:09:10;;;;;;;14.23;11.43;;;20.70;99.90;;;-141.84;47.37;21802.00;4909477;28;20226;-63
2023/07/05 06:11:38;;;;;;;17.65;11.73;;;20.50;99.90;;;-141.84;47.06;21799.97;4914608;29;20568;-63
2023/07/05 06:14:07;;;;;;;13.48;10.73;;;20.50;99.90;;;-141.84;47.56;21684.06;4926785;28;20337;-75
2023/07/05 06:16:35;;;;;;;12.23;10.35;;;20.50;99.90;;;-141.84;47.79;21728.78;4901377;29;20768;-73
2023/07/05 06:19:05;;;;;;;13.38;11.02;;;20.50;99.90;;;-141.84;48.17;21677.97;4909550;29;20238;-74
2023/07/05 06:21:33;;;;;;;14.43;11.30;;;20.50;99.90;;;-141.84;48.86;21647.47;4909227;29;20238;-75
2023/07/05 06:24:01;;;;;;;12.57;10.15;;;20.30;99.90;;;-141.84;49.06;21657.63;4908228;29;20600;-74
2023/07/05 06:26:30;;;;;;;13.30;10.73;;;20.30;99.90;;;-141.84;49.16;21724.72;4902183;29;20268;-75
2023/07/05 06:28:58;;;;;;;16.00;10.23;;;20.30;99.90;;;-141.84;49.12;21716.59;4909058;29;20261;-73
2023/07/05 06:31:33;;;;;;;13.98;11.02;;;20.30;99.90;;;-141.84;48.41;21696.25;4910181;29;20296;-75
2023/07/05 06:34:01;;;;;;;16.98;10.75;;;20.30;99.90;;;-141.84;49.73;21732.84;4908652;29;20267;-74
2023/07/05 06:36:31;;;;;;;13.15;9.75;;;20.40;99.90;;;-141.84;50.61;21665.75;4901721;29;20313;-75
2023/07/05 06:38:59;;;;;;;14.32;10.27;;;20.40;99.90;;;-141.84;50.91;21682.03;4908800;29;20253;-76
2023/07/05 06:41:27;;;;;;;15.20;10.43;;;20.30;99.90;;;-141.84;50.40;21704.38;4909643;29;20281;-74
2023/07/05 06:43:55;;;;;;;13.63;9.68;;;20.30;99.90;;;-141.84;49.70;21686.09;4908141;29;20230;-75
2023/07/05 06:46:24;;;;;;;13.13;9.45;;;20.40;99.90;;;-141.84;50.78;21741.00;4900618;29;20321;-67
2023/07/05 06:48:52;;;;;;;13.15;9.75;;;20.30;99.90;;;-141.84;51.85;21677.97;4903578;29;20233;-66
2023/07/05 06:51:20;;;;;;;9.30;8.32;;;20.40;99.90;;;-141.84;52.55;21724.72;4907584;28;20229;-66
2023/07/05 06:53:50;;;;;;;10.90;7.88;;;20.40;99.90;;;-141.84;52.34;21677.97;4907790;28;20248;-66
2023/07/05 06:56:18;;;;;;;11.00;8.50;;;20.30;99.90;;;-141.84;52.44;21716.59;4901129;28;20230;-65
2023/07/05 06:58:47;;;;;;;10.90;7.93;;;20.30;99.90;;;-141.84;50.92;21773.53;4906949;28;20282;-67
2023/07/05 07:01:15;;;;;;;9.60;7.35;;;20.50;99.90;;;-141.84;51.35;21763.34;4907213;29;20646;-66
2023/07/05 07:03:44;;;;;;;9.40;7.90;;;20.60;99.90;;;-141.84;51.97;21732.84;4901899;29;20814;-73
2023/07/05 07:06:12;;;;;;;10.75;8.23;;;20.50;99.90;;;-141.84;51.52;21741.00;4890283;29;20207;-72
2023/07/05 07:08:41;;;;;;;10.77;8.10;;;20.60;99.90;;;-141.84;51.41;21753.19;4902275;29;20217;-71
2023/07/05 07:11:13;;;;;;;8.13;7.30;;;20.60;99.90;;;-141.84;51.64;21732.84;4907411;29;20324;-71
2023/07/05 07:13:42;;;;;;;9.95;8.30;;;20.50;99.90;;;-141.84;52.49;21686.09;4906997;29;20280;-70
2023/07/05 07:16:13;;;;;;;11.52;7.28;;;20.40;99.90;;;-141.84;53.29;21616.97;4888944;29;20668;-71
2023/07/05 07:18:47;;;;;;;10.50;7.50;;;20.30;99.90;;;-141.84;54.35;21578.31;4883781;29;20613;-66
2023/07/05 07:21:17;;;;;;;8.93;7.60;;;20.20;99.90;;;-141.84;54.96;21562.06;4888363;29;20282;-65
2023/07/05 07:23:48;;;;;;;8.57;7.03;;;20.00;99.90;;;-141.84;53.76;21712.53;4888500;29;20249;-72
2023/07/05 07:26:21;;;;;;;9.48;6.72;;;20.00;99.90;;;-141.84;54.28;21631.19;4885967;29;20235;-72
2023/07/05 07:28:53;;;;;;;7.10;6.10;;;20.00;99.90;;;-141.84;55.52;21570.19;4903452;29;20798;-71
2023/07/05 07:31:24;;;;;;;7.32;6.25;;;19.80;99.90;;;-141.84;55.59;21558.00;4895811;29;20234;-72
2023/07/05 07:33:53;;;;;;;6.95;5.72;;;19.80;99.90;;;-141.84;55.49;21537.66;4888388;29;20549;-71
2023/07/05 07:36:24;;;;;;;7.65;5.82;;;19.80;99.90;;;-141.84;55.05;21592.56;4881289;29;20238;-72
2023/07/05 07:38:54;;;;;;;7.25;6.13;;;19.90;99.90;;;-141.84;55.06;21588.50;4889095;29;20284;-72
2023/07/05 07:41:27;;;;;;;7.78;6.13;;;19.90;99.90;;;-141.84;54.24;21708.47;4912988;28;20293;-69
2023/07/05 07:43:58;;;;;;;7.90;5.18;;;20.10;99.90;;;-141.84;54.57;21704.38;4906642;28;20258;-69
2023/07/05 07:46:29;;;;;;;5.88;4.65;;;20.20;99.90;;;-141.84;54.41;21675.94;4898787;29;20749;-69
2023/07/05 07:49:00;;;;;;;5.47;4.53;;;20.20;99.90;;;-141.84;55.00;21653.56;4907159;29;20229;-69
2023/07/05 07:51:32;;;;;;;6.28;4.80;;;20.30;99.90;;;-141.84;54.18;21675.94;4911078;28;20288;-69
2023/07/05 07:54:04;;;;;;;9.10;5.20;;;20.20;99.90;;;-141.84;54.53;21661.69;4927277;28;20308;-67
2023/07/05 07:56:34;;;;;;;6.65;4.82;;;20.20;99.90;;;-141.84;55.09;21643.38;4909993;28;20214;-67
2023/07/05 07:59:06;;;;;;;7.15;4.18;;;20.30;99.90;;;-141.84;55.47;21641.34;4906195;29;20753;-68
2023/07/05 08:01:38;;;;;;;6.10;3.80;;;20.20;99.90;;;-141.84;54.22;21728.78;4906234;29;20250;-69
2023/07/05 08:04:09;;;;;;;4.78;3.95;;;20.30;99.90;;;-141.84;55.23;21643.38;4898179;29;20234;-70
2023/07/05 08:06:41;;;;;;;5.63;4.00;;;20.40;99.90;;;-141.84;54.46;21724.72;4880969;29;20253;-72
2023/07/05 08:09:13;;;;;;;4.22;3.80;;;20.40;99.90;;;-141.84;54.88;21673.88;4888365;29;20211;-71
2023/07/05 08:11:43;;;;;;;5.43;3.95;;;20.50;99.90;;;-141.84;54.03;21773.53;4892550;29;20313;-71
2023/07/05 08:14:13;;;;;;;4.47;3.40;;;20.60;99.90;;;-141.84;54.59;21795.88;4903751;29;20351;-72
2023/07/05 08:16:42;;;;;;;6.03;3.80;;;20.70;99.90;;;-141.84;53.42;21814.19;4883286;29;20235;-71
2023/07/05 08:19:10;;;;;;;4.07;3.47;;;20.80;99.90;;;-141.84;53.52;21842.66;4887141;29;20238;-70
2023/07/05 08:21:39;;;;;;;5.22;3.38;;;20.90;99.90;;;-141.84;53.73;21842.66;4888043;29;20269;-66
2023/07/05 08:24:07;;;;;;;4.35;3.42;;;21.00;99.90;;;-141.84;53.84;21850.78;4886838;29;20636;-59
2023/07/05 08:26:56;;;;;;;4.22;3.33;;;21.10;99.90;;;-141.84;53.80;21830.47;4870561;29;20219;-59
2023/07/05 08:29:24;;;;;;;3.40;3.10;;;21.10;99.90;;;-141.84;53.40;21883.31;4907081;29;20272;-58
2023/07/05 08:31:53;;;;;;;3.78;2.80;;;21.30;99.90;;;-141.84;52.14;21964.66;4905904;29;20237;-60
2023/07/05 08:34:21;;;;;;;3.78;3.38;;;21.50;99.90;;;-141.84;52.49;21978.91;4888279;29;20286;-59
2023/07/05 08:36:49;;;;;;;3.92;3.10;;;21.60;99.90;;;-141.84;52.23;21993.13;4887327;29;20321;-61
2023/07/05 08:39:18;;;;;;;4.72;3.08;;;21.70;99.90;;;-141.84;51.64;22031.78;4887535;29;20231;-60
2023/07/05 08:42:09;;;;;;;4.38;2.85;;;21.80;99.90;;;-141.84;51.40;22068.38;4887159;29;20294;-61
2023/07/05 08:44:53;;;;;;;3.88;2.75;;;21.90;99.90;;;-141.84;51.44;22068.38;4879630;29;20247;-61
2023/07/05 08:47:32;;;;;;;4.10;2.85;;;22.00;99.90;;;-141.84;50.92;22023.63;4905919;29;20261;-60
2023/07/05 08:50:14;;;;;;;4.93;2.58;;;22.00;99.90;;;-141.84;51.45;22048.03;4921979;28;20241;-61
2023/07/05 08:52:51;;;;;;;3.97;2.35;;;21.90;99.90;;;-141.84;51.07;22147.69;4916810;28;20744;-59
2023/07/05 08:55:29;;;;;;;2.30;2.10;;;22.20;99.90;;;-141.84;49.72;22212.75;4905951;28;20333;-61
2023/07/05 08:57:59;;;;;;;3.40;2.50;;;22.30;99.90;;;-141.84;49.02;22281.91;4890905;29;20305;-61
2023/07/05 09:00:39;;;;;;;3.78;2.30;;;22.50;99.90;;;-141.84;49.15;22320.53;4887440;28;20277;-61
2023/07/05 09:03:12;;;;;;;4.20;2.22;;;22.80;99.90;;;-141.84;48.55;22365.28;4909364;28;20702;-60
2023/07/05 09:05:50;;;;;;;3.65;1.83;;;23.00;99.90;;;-141.84;48.18;22383.59;4909520;29;20216;-60
2023/07/05 09:08:31;;;;;;;3.80;2.05;;;23.10;99.90;;;-141.84;48.50;22326.66;4884853;29;20277;-63
2023/07/05 09:11:09;;;;;;;3.35;1.70;;;23.20;99.90;;;-141.84;49.24;22265.63;4890420;29;20372;-60
2023/07/05 09:13:42;;;;;;;2.47;1.80;;;23.00;99.90;;;-141.84;49.57;22184.28;4871875;29;20724;-61
2023/07/05 09:16:24;;;;;;;1.83;1.55;;;22.80;99.90;;;-141.84;49.67;22127.34;4889383;29;20238;-61
2023/07/05 09:19:10;;;;;;;2.28;1.70;;;22.70;99.90;;;-141.84;50.17;22137.50;4890427;29;20230;-62
2023/07/05 09:21:46;;;;;;;3.30;1.83;;;22.60;99.90;;;-141.84;49.71;22251.41;4895623;29;20300;-62
2023/07/05 09:24:23;;;;;;;3.85;1.80;;;22.70;99.90;;;-141.84;49.82;22334.78;4908945;29;20757;-62
2023/07/05 09:26:56;;;;;;;2.65;1.58;;;22.90;99.90;;;-141.84;49.27;22355.13;4909019;29;20202;-60
2023/07/05 09:29:35;;;;;;;4.63;1.90;;;23.10;99.90;;;-141.84;48.43;22436.47;4909040;29;20651;-62
2023/07/05 09:32:12;;;;;;;2.55;1.90;;;23.40;99.90;;;-141.84;47.67;22534.09;4908933;29;20664;-62
2023/07/05 09:34:47;;;;;;;1.92;1.60;;;23.50;99.90;;;-141.84;47.26;22538.16;4891671;29;20241;-60
2023/07/05 09:37:19;;;;;;;6.40;1.88;;;23.70;99.90;;;-141.84;46.48;22607.31;4889231;29;20438;-62
2023/07/05 09:40:11;;;;;;;4.22;2.00;;;23.90;99.90;;;-141.84;46.83;22595.09;4889354;29;20250;-61
2023/07/05 09:42:58;;;;;;;2.63;1.52;;;24.00;99.90;;;-141.84;46.65;22586.97;4869076;29;20269;-62
2023/07/05 09:45:29;;;;;;;3.33;1.67;;;24.10;99.90;;;-141.84;47.29;22593.06;4889177;29;20223;-61
2023/07/05 09:48:01;;;;;;;3.30;1.67;;;24.00;99.90;;;-141.84;46.29;22652.03;4889895;29;20219;-61
2023/07/05 09:50:30;;;;;;;3.15;1.92;;;24.10;99.90;;;-141.84;45.41;22772.03;4882359;29;20229;-61
2023/07/05 09:57:09;;;;;;;4.22;1.88;;;24.70;99.90;;;-141.84;44.93;22871.72;4907319;28;20651;-61
2023/07/05 09:59:38;;;;;;;3.53;1.90;;;24.70;99.90;;;-141.84;44.96;22833.06;4908720;29;20226;-61
2023/07/05 10:02:31;;;;;;;3.92;1.83;;;24.80;99.90;;;-141.84;44.91;22770.00;4908127;28;20320;-61
2023/07/05 10:05:24;;;;;;;2.60;1.92;;;24.80;99.90;;;-141.84;44.89;22706.97;4893453;29;20330;-60
2023/07/05 10:07:57;;;;;;;3.58;1.98;;;24.70;99.90;;;-141.84;45.17;22727.28;4888237;29;20681;-61
2023/07/05 10:10:29;;;;;;;2.30;1.73;;;24.50;99.90;;;-141.84;44.59;22765.94;4882429;29;20285;-62
2023/07/05 10:13:05;;;;;;;2.92;1.90;;;24.60;99.90;;;-141.84;45.35;22778.16;4904682;29;20308;-61
2023/07/05 10:15:35;;;;;;;1.77;1.42;;;24.70;99.90;;;-141.84;44.78;22800.50;4894467;29;20245;-60
2023/07/05 10:18:04;;;;;;;1.67;1.55;;;24.80;99.90;;;-141.84;44.49;22770.00;4890913;29;20223;-60
2023/07/05 10:20:39;;;;;;;3.83;2.03;;;24.80;99.90;;;-141.84;45.33;22715.09;4900724;29;20427;-60
2023/07/05 10:23:18;;;;;;;2.65;1.92;;;24.60;99.90;;;-141.84;45.87;22639.84;4890626;29;20320;-60